sensor_id;sensor_type;location;lat;lon;timestamp;temperature;humidity
65046;DHT22;54657;52.022;5.534;2023-08-06T00:00:16;17.30;96.40
65046;DHT22;54657;52.022;5.534;2023-08-06T00:02:41;17.30;96.50
65046;DHT22;54657;52.022;5.534;2023-08-06T00:05:07;17.30;96.40
65046;DHT22;54657;52.022;5.534;2023-08-06T00:07:33;17.30;96.40
65046;DHT22;54657;52.022;5.534;2023-08-06T00:09:58;17.30;96.50
65046;DHT22;54657;52.022;5.534;2023-08-06T00:12:24;17.30;96.40
65046;DHT22;54657;52.022;5.534;2023-08-06T00:14:53;17.30;96.40
65046;DHT22;54657;52.022;5.534;2023-08-06T00:17:19;17.30;96.50
65046;DHT22;54657;52.022;5.534;2023-08-06T00:19:45;17.30;96.60
65046;DHT22;54657;52.022;5.534;2023-08-06T00:22:10;17.30;96.50
65046;DHT22;54657;52.022;5.534;2023-08-06T00:24:36;17.30;96.50
65046;DHT22;54657;52.022;5.534;2023-08-06T00:27:02;17.30;96.50
65046;DHT22;54657;52.022;5.534;2023-08-06T00:29:28;17.30;96.40
65046;DHT22;54657;52.022;5.534;2023-08-06T00:31:54;17.30;96.40
65046;DHT22;54657;52.022;5.534;2023-08-06T00:34:19;17.30;96.50
65046;DHT22;54657;52.022;5.534;2023-08-06T00:36:45;17.30;96.50
65046;DHT22;54657;52.022;5.534;2023-08-06T00:39:10;17.20;96.80
65046;DHT22;54657;52.022;5.534;2023-08-06T00:41:36;17.30;96.80
65046;DHT22;54657;52.022;5.534;2023-08-06T00:44:02;17.30;96.40
65046;DHT22;54657;52.022;5.534;2023-08-06T00:46:28;17.40;96.40
65046;DHT22;54657;52.022;5.534;2023-08-06T00:48:53;17.30;96.40
65046;DHT22;54657;52.022;5.534;2023-08-06T00:51:20;17.30;96.40
65046;DHT22;54657;52.022;5.534;2023-08-06T00:53:46;17.30;96.40
65046;DHT22;54657;52.022;5.534;2023-08-06T00:56:13;17.30;96.40
65046;DHT22;54657;52.022;5.534;2023-08-06T00:58:39;17.30;96.70
65046;DHT22;54657;52.022;5.534;2023-08-06T01:01:05;17.30;96.50
65046;DHT22;54657;52.022;5.534;2023-08-06T01:03:31;17.30;96.40
65046;DHT22;54657;52.022;5.534;2023-08-06T01:05:57;17.40;96.50
65046;DHT22;54657;52.022;5.534;2023-08-06T01:09:17;17.30;96.50
65046;DHT22;54657;52.022;5.534;2023-08-06T01:11:37;17.40;96.50
65046;DHT22;54657;52.022;5.534;2023-08-06T01:14:17;17.40;96.60
65046;DHT22;54657;52.022;5.534;2023-08-06T01:16:43;17.30;96.60
65046;DHT22;54657;52.022;5.534;2023-08-06T01:19:17;17.30;96.70
65046;DHT22;54657;52.022;5.534;2023-08-06T01:21:42;17.30;96.80
65046;DHT22;54657;52.022;5.534;2023-08-06T01:24:08;17.20;96.80
65046;DHT22;54657;52.022;5.534;2023-08-06T01:29:15;17.20;96.90
65046;DHT22;54657;52.022;5.534;2023-08-06T01:31:43;17.20;96.90
65046;DHT22;54657;52.022;5.534;2023-08-06T01:34:16;17.20;96.90
65046;DHT22;54657;52.022;5.534;2023-08-06T01:36:43;17.30;96.90
65046;DHT22;54657;52.022;5.534;2023-08-06T01:39:09;17.30;97.00
65046;DHT22;54657;52.022;5.534;2023-08-06T01:41:34;17.20;96.90
65046;DHT22;54657;52.022;5.534;2023-08-06T01:44:00;17.20;97.00
65046;DHT22;54657;52.022;5.534;2023-08-06T01:46:25;17.20;97.00
65046;DHT22;54657;52.022;5.534;2023-08-06T01:48:51;17.20;97.00
65046;DHT22;54657;52.022;5.534;2023-08-06T01:51:16;17.20;97.10
65046;DHT22;54657;52.022;5.534;2023-08-06T01:53:42;17.20;97.10
65046;DHT22;54657;52.022;5.534;2023-08-06T01:56:07;17.20;97.10
65046;DHT22;54657;52.022;5.534;2023-08-06T01:58:33;17.10;97.20
65046;DHT22;54657;52.022;5.534;2023-08-06T02:00:59;17.00;97.30
65046;DHT22;54657;52.022;5.534;2023-08-06T02:03:24;17.00;97.40
65046;DHT22;54657;52.022;5.534;2023-08-06T02:05:50;16.90;97.40
65046;DHT22;54657;52.022;5.534;2023-08-06T02:08:15;16.90;97.40
65046;DHT22;54657;52.022;5.534;2023-08-06T02:10:41;16.90;97.40
65046;DHT22;54657;52.022;5.534;2023-08-06T02:13:07;17.00;97.40
65046;DHT22;54657;52.022;5.534;2023-08-06T02:15:32;17.00;97.40
65046;DHT22;54657;52.022;5.534;2023-08-06T02:17:58;17.00;97.40
65046;DHT22;54657;52.022;5.534;2023-08-06T02:20:23;17.00;97.40
65046;DHT22;54657;52.022;5.534;2023-08-06T02:22:49;17.00;97.50
65046;DHT22;54657;52.022;5.534;2023-08-06T02:25:14;17.00;97.40
65046;DHT22;54657;52.022;5.534;2023-08-06T02:27:40;16.90;97.50
65046;DHT22;54657;52.022;5.534;2023-08-06T02:30:06;16.90;97.50
65046;DHT22;54657;52.022;5.534;2023-08-06T02:32:32;16.90;97.60
65046;DHT22;54657;52.022;5.534;2023-08-06T02:35:01;16.90;97.60
65046;DHT22;54657;52.022;5.534;2023-08-06T02:37:26;16.90;97.60
65046;DHT22;54657;52.022;5.534;2023-08-06T02:39:52;16.90;97.60
65046;DHT22;54657;52.022;5.534;2023-08-06T02:42:17;16.90;97.60
65046;DHT22;54657;52.022;5.534;2023-08-06T02:44:43;17.00;97.50
65046;DHT22;54657;52.022;5.534;2023-08-06T02:47:08;17.00;97.60
65046;DHT22;54657;52.022;5.534;2023-08-06T02:49:34;17.00;97.50
65046;DHT22;54657;52.022;5.534;2023-08-06T02:51:59;17.00;97.60
65046;DHT22;54657;52.022;5.534;2023-08-06T02:54:25;17.00;97.50
65046;DHT22;54657;52.022;5.534;2023-08-06T02:56:51;17.00;97.50
65046;DHT22;54657;52.022;5.534;2023-08-06T02:59:16;17.00;97.50
65046;DHT22;54657;52.022;5.534;2023-08-06T03:01:42;17.00;97.50
65046;DHT22;54657;52.022;5.534;2023-08-06T03:04:07;17.00;97.50
65046;DHT22;54657;52.022;5.534;2023-08-06T03:06:33;16.90;97.60
65046;DHT22;54657;52.022;5.534;2023-08-06T03:08:59;17.00;97.60
65046;DHT22;54657;52.022;5.534;2023-08-06T03:11:24;17.00;97.60
65046;DHT22;54657;52.022;5.534;2023-08-06T03:13:50;17.00;97.50
65046;DHT22;54657;52.022;5.534;2023-08-06T03:16:15;17.10;97.50
65046;DHT22;54657;52.022;5.534;2023-08-06T03:18:41;17.10;97.50
65046;DHT22;54657;52.022;5.534;2023-08-06T03:21:06;17.20;97.50
65046;DHT22;54657;52.022;5.534;2023-08-06T03:23:32;17.20;97.50
65046;DHT22;54657;52.022;5.534;2023-08-06T03:26:04;17.20;97.50
65046;DHT22;54657;52.022;5.534;2023-08-06T03:28:29;17.20;97.40
65046;DHT22;54657;52.022;5.534;2023-08-06T03:31:02;17.20;97.40
65046;DHT22;54657;52.022;5.534;2023-08-06T03:33:28;17.10;97.60
65046;DHT22;54657;52.022;5.534;2023-08-06T03:35:54;17.10;97.50
65046;DHT22;54657;52.022;5.534;2023-08-06T03:38:19;17.10;97.50
65046;DHT22;54657;52.022;5.534;2023-08-06T03:40:46;17.20;97.60
65046;DHT22;54657;52.022;5.534;2023-08-06T03:43:12;17.20;97.60
65046;DHT22;54657;52.022;5.534;2023-08-06T03:45:38;17.20;97.60
65046;DHT22;54657;52.022;5.534;2023-08-06T03:48:03;17.20;97.60
65046;DHT22;54657;52.022;5.534;2023-08-06T03:50:29;17.20;97.60
65046;DHT22;54657;52.022;5.534;2023-08-06T03:52:55;17.20;97.50
65046;DHT22;54657;52.022;5.534;2023-08-06T03:55:21;17.20;97.60
65046;DHT22;54657;52.022;5.534;2023-08-06T03:57:46;17.20;97.70
65046;DHT22;54657;52.022;5.534;2023-08-06T04:00:12;17.20;97.60
65046;DHT22;54657;52.022;5.534;2023-08-06T04:02:38;17.20;97.70
65046;DHT22;54657;52.022;5.534;2023-08-06T04:05:04;17.20;97.80
65046;DHT22;54657;52.022;5.534;2023-08-06T04:07:29;17.10;97.80
65046;DHT22;54657;52.022;5.534;2023-08-06T04:09:58;17.10;97.90
65046;DHT22;54657;52.022;5.534;2023-08-06T04:12:24;17.10;97.90
65046;DHT22;54657;52.022;5.534;2023-08-06T04:14:51;17.10;97.90
65046;DHT22;54657;52.022;5.534;2023-08-06T04:17:19;17.00;98.10
65046;DHT22;54657;52.022;5.534;2023-08-06T04:19:50;17.00;98.10
65046;DHT22;54657;52.022;5.534;2023-08-06T04:22:16;17.00;98.10
65046;DHT22;54657;52.022;5.534;2023-08-06T04:24:42;17.00;98.20
65046;DHT22;54657;52.022;5.534;2023-08-06T04:27:12;16.90;98.50
65046;DHT22;54657;52.022;5.534;2023-08-06T04:29:38;16.80;98.50
65046;DHT22;54657;52.022;5.534;2023-08-06T04:32:07;16.70;98.70
65046;DHT22;54657;52.022;5.534;2023-08-06T04:34:33;16.70;98.70
65046;DHT22;54657;52.022;5.534;2023-08-06T04:36:59;16.70;98.70
65046;DHT22;54657;52.022;5.534;2023-08-06T04:39:25;16.70;98.80
65046;DHT22;54657;52.022;5.534;2023-08-06T04:41:51;16.70;98.70
65046;DHT22;54657;52.022;5.534;2023-08-06T04:44:16;16.80;98.70
65046;DHT22;54657;52.022;5.534;2023-08-06T04:46:42;16.80;98.70
65046;DHT22;54657;52.022;5.534;2023-08-06T04:49:08;16.70;98.70
65046;DHT22;54657;52.022;5.534;2023-08-06T04:51:33;16.70;98.80
65046;DHT22;54657;52.022;5.534;2023-08-06T04:53:59;16.60;98.90
65046;DHT22;54657;52.022;5.534;2023-08-06T04:56:24;16.70;98.90
65046;DHT22;54657;52.022;5.534;2023-08-06T04:58:50;16.70;99.10
65046;DHT22;54657;52.022;5.534;2023-08-06T05:01:16;16.80;98.80
65046;DHT22;54657;52.022;5.534;2023-08-06T05:03:42;16.80;98.70
65046;DHT22;54657;52.022;5.534;2023-08-06T05:06:07;16.80;98.60
65046;DHT22;54657;52.022;5.534;2023-08-06T05:08:33;16.80;98.60
65046;DHT22;54657;52.022;5.534;2023-08-06T05:10:59;16.80;98.80
65046;DHT22;54657;52.022;5.534;2023-08-06T05:13:24;16.70;98.80
65046;DHT22;54657;52.022;5.534;2023-08-06T05:15:51;16.70;98.80
65046;DHT22;54657;52.022;5.534;2023-08-06T05:18:16;16.60;98.90
65046;DHT22;54657;52.022;5.534;2023-08-06T05:20:42;16.60;99.00
65046;DHT22;54657;52.022;5.534;2023-08-06T05:23:08;16.60;99.00
65046;DHT22;54657;52.022;5.534;2023-08-06T05:25:35;16.60;99.00
65046;DHT22;54657;52.022;5.534;2023-08-06T05:28:02;16.50;99.10
65046;DHT22;54657;52.022;5.534;2023-08-06T05:30:28;16.40;99.30
65046;DHT22;54657;52.022;5.534;2023-08-06T05:32:53;16.40;99.30
65046;DHT22;54657;52.022;5.534;2023-08-06T05:35:21;16.40;99.40
65046;DHT22;54657;52.022;5.534;2023-08-06T05:37:46;16.50;99.30
65046;DHT22;54657;52.022;5.534;2023-08-06T05:40:12;16.50;99.40
65046;DHT22;54657;52.022;5.534;2023-08-06T05:42:37;16.50;99.30
65046;DHT22;54657;52.022;5.534;2023-08-06T05:45:03;16.50;99.20
65046;DHT22;54657;52.022;5.534;2023-08-06T05:47:29;16.60;99.20
65046;DHT22;54657;52.022;5.534;2023-08-06T05:49:54;16.70;99.10
65046;DHT22;54657;52.022;5.534;2023-08-06T05:52:20;16.70;99.00
65046;DHT22;54657;52.022;5.534;2023-08-06T05:54:45;16.70;99.00
65046;DHT22;54657;52.022;5.534;2023-08-06T05:57:11;16.70;99.10
65046;DHT22;54657;52.022;5.534;2023-08-06T05:59:36;16.70;99.10
65046;DHT22;54657;52.022;5.534;2023-08-06T06:02:02;16.70;99.00
65046;DHT22;54657;52.022;5.534;2023-08-06T06:04:28;16.70;99.20
65046;DHT22;54657;52.022;5.534;2023-08-06T06:06:54;16.70;99.20
65046;DHT22;54657;52.022;5.534;2023-08-06T06:09:19;16.70;99.10
65046;DHT22;54657;52.022;5.534;2023-08-06T06:11:45;16.70;99.20
65046;DHT22;54657;52.022;5.534;2023-08-06T06:14:10;16.70;99.10
65046;DHT22;54657;52.022;5.534;2023-08-06T06:16:36;16.80;99.10
65046;DHT22;54657;52.022;5.534;2023-08-06T06:19:02;16.80;99.10
65046;DHT22;54657;52.022;5.534;2023-08-06T06:21:27;16.80;99.10
65046;DHT22;54657;52.022;5.534;2023-08-06T06:23:53;16.80;99.10
65046;DHT22;54657;52.022;5.534;2023-08-06T06:26:18;16.80;99.20
65046;DHT22;54657;52.022;5.534;2023-08-06T06:28:44;16.80;99.20
65046;DHT22;54657;52.022;5.534;2023-08-06T06:31:10;16.80;99.10
65046;DHT22;54657;52.022;5.534;2023-08-06T06:33:36;16.80;99.20
65046;DHT22;54657;52.022;5.534;2023-08-06T06:36:01;16.80;99.20
65046;DHT22;54657;52.022;5.534;2023-08-06T06:38:30;16.80;99.40
65046;DHT22;54657;52.022;5.534;2023-08-06T06:40:56;16.80;99.20
65046;DHT22;54657;52.022;5.534;2023-08-06T06:43:22;16.90;99.10
65046;DHT22;54657;52.022;5.534;2023-08-06T06:46:01;16.90;99.10
65046;DHT22;54657;52.022;5.534;2023-08-06T06:48:28;16.90;99.30
65046;DHT22;54657;52.022;5.534;2023-08-06T06:50:54;16.90;99.10
65046;DHT22;54657;52.022;5.534;2023-08-06T06:53:19;16.90;99.10
65046;DHT22;54657;52.022;5.534;2023-08-06T06:55:45;16.90;99.20
65046;DHT22;54657;52.022;5.534;2023-08-06T06:58:15;16.90;99.20
65046;DHT22;54657;52.022;5.534;2023-08-06T07:00:41;17.00;99.20
65046;DHT22;54657;52.022;5.534;2023-08-06T07:03:07;17.00;99.20
65046;DHT22;54657;52.022;5.534;2023-08-06T07:05:32;17.10;99.20
65046;DHT22;54657;52.022;5.534;2023-08-06T07:07:58;17.00;99.20
65046;DHT22;54657;52.022;5.534;2023-08-06T07:10:24;17.10;99.20
65046;DHT22;54657;52.022;5.534;2023-08-06T07:12:49;17.00;99.20
65046;DHT22;54657;52.022;5.534;2023-08-06T07:15:15;17.00;99.40
65046;DHT22;54657;52.022;5.534;2023-08-06T07:17:43;17.00;99.30
65046;DHT22;54657;52.022;5.534;2023-08-06T07:20:08;17.00;99.30
65046;DHT22;54657;52.022;5.534;2023-08-06T07:22:34;17.10;99.30
65046;DHT22;54657;52.022;5.534;2023-08-06T07:25:00;17.10;99.30
65046;DHT22;54657;52.022;5.534;2023-08-06T07:27:26;17.20;99.20
65046;DHT22;54657;52.022;5.534;2023-08-06T07:29:51;17.20;99.10
65046;DHT22;54657;52.022;5.534;2023-08-06T07:32:17;17.10;99.10
65046;DHT22;54657;52.022;5.534;2023-08-06T07:34:42;17.10;99.30
65046;DHT22;54657;52.022;5.534;2023-08-06T07:37:08;17.10;99.40
65046;DHT22;54657;52.022;5.534;2023-08-06T07:39:33;17.10;99.40
65046;DHT22;54657;52.022;5.534;2023-08-06T07:41:59;17.10;99.30
65046;DHT22;54657;52.022;5.534;2023-08-06T07:44:25;17.20;99.30
65046;DHT22;54657;52.022;5.534;2023-08-06T07:46:50;17.10;99.30
65046;DHT22;54657;52.022;5.534;2023-08-06T07:49:16;17.00;99.40
65046;DHT22;54657;52.022;5.534;2023-08-06T07:51:41;17.00;99.50
65046;DHT22;54657;52.022;5.534;2023-08-06T07:54:08;17.00;99.60
65046;DHT22;54657;52.022;5.534;2023-08-06T07:56:33;17.00;99.50
65046;DHT22;54657;52.022;5.534;2023-08-06T07:58:59;17.10;99.50
65046;DHT22;54657;52.022;5.534;2023-08-06T08:01:24;17.10;99.50
65046;DHT22;54657;52.022;5.534;2023-08-06T08:03:50;17.20;99.40
65046;DHT22;54657;52.022;5.534;2023-08-06T08:06:16;17.10;99.30
65046;DHT22;54657;52.022;5.534;2023-08-06T08:08:42;17.10;99.40
65046;DHT22;54657;52.022;5.534;2023-08-06T08:11:08;17.10;99.40
65046;DHT22;54657;52.022;5.534;2023-08-06T08:13:33;17.20;99.40
65046;DHT22;54657;52.022;5.534;2023-08-06T08:16:00;17.30;99.30
65046;DHT22;54657;52.022;5.534;2023-08-06T08:18:26;17.30;99.30
65046;DHT22;54657;52.022;5.534;2023-08-06T08:20:52;17.30;99.30
65046;DHT22;54657;52.022;5.534;2023-08-06T08:23:18;17.30;99.20
65046;DHT22;54657;52.022;5.534;2023-08-06T08:25:43;17.40;99.20
65046;DHT22;54657;52.022;5.534;2023-08-06T08:28:09;17.30;99.20
65046;DHT22;54657;52.022;5.534;2023-08-06T08:30:34;17.20;99.20
65046;DHT22;54657;52.022;5.534;2023-08-06T08:33:00;17.10;99.40
65046;DHT22;54657;52.022;5.534;2023-08-06T08:35:25;17.00;99.40
65046;DHT22;54657;52.022;5.534;2023-08-06T08:37:51;16.90;99.40
65046;DHT22;54657;52.022;5.534;2023-08-06T08:40:17;16.90;99.60
65046;DHT22;54657;52.022;5.534;2023-08-06T08:42:43;16.80;99.70
65046;DHT22;54657;52.022;5.534;2023-08-06T08:45:13;16.70;99.70
65046;DHT22;54657;52.022;5.534;2023-08-06T08:47:40;16.60;99.70
65046;DHT22;54657;52.022;5.534;2023-08-06T08:50:08;16.60;99.80
65046;DHT22;54657;52.022;5.534;2023-08-06T08:52:35;16.50;99.80
65046;DHT22;54657;52.022;5.534;2023-08-06T08:55:01;16.40;99.80
65046;DHT22;54657;52.022;5.534;2023-08-06T08:57:27;16.30;99.90
65046;DHT22;54657;52.022;5.534;2023-08-06T08:59:53;16.30;99.90
65046;DHT22;54657;52.022;5.534;2023-08-06T09:02:21;16.20;99.90
65046;DHT22;54657;52.022;5.534;2023-08-06T09:04:48;16.20;99.90
65046;DHT22;54657;52.022;5.534;2023-08-06T09:07:17;16.20;99.90
65046;DHT22;54657;52.022;5.534;2023-08-06T09:09:43;16.30;99.90
65046;DHT22;54657;52.022;5.534;2023-08-06T09:12:14;16.20;99.90
65046;DHT22;54657;52.022;5.534;2023-08-06T09:14:40;16.20;99.90
65046;DHT22;54657;52.022;5.534;2023-08-06T09:17:06;16.20;99.90
65046;DHT22;54657;52.022;5.534;2023-08-06T09:19:32;16.10;99.90
65046;DHT22;54657;52.022;5.534;2023-08-06T09:21:58;16.10;99.90
65046;DHT22;54657;52.022;5.534;2023-08-06T09:24:24;16.10;99.90
65046;DHT22;54657;52.022;5.534;2023-08-06T09:26:51;16.10;99.90
65046;DHT22;54657;52.022;5.534;2023-08-06T09:29:17;16.10;99.90
65046;DHT22;54657;52.022;5.534;2023-08-06T09:31:44;16.00;99.90
65046;DHT22;54657;52.022;5.534;2023-08-06T09:34:18;16.10;99.90
65046;DHT22;54657;52.022;5.534;2023-08-06T09:36:48;16.00;99.90
65046;DHT22;54657;52.022;5.534;2023-08-06T09:39:18;16.00;99.90
65046;DHT22;54657;52.022;5.534;2023-08-06T09:41:44;16.00;99.90
65046;DHT22;54657;52.022;5.534;2023-08-06T09:44:20;16.10;99.90
65046;DHT22;54657;52.022;5.534;2023-08-06T09:46:49;16.00;99.90
65046;DHT22;54657;52.022;5.534;2023-08-06T09:49:16;16.00;99.90
65046;DHT22;54657;52.022;5.534;2023-08-06T09:51:42;16.00;99.90
65046;DHT22;54657;52.022;5.534;2023-08-06T09:54:08;16.00;99.90
65046;DHT22;54657;52.022;5.534;2023-08-06T09:56:37;16.10;99.90
65046;DHT22;54657;52.022;5.534;2023-08-06T09:59:06;16.10;99.90
65046;DHT22;54657;52.022;5.534;2023-08-06T10:01:34;16.10;99.90
65046;DHT22;54657;52.022;5.534;2023-08-06T10:04:04;16.10;99.90
65046;DHT22;54657;52.022;5.534;2023-08-06T10:06:34;16.10;99.90
65046;DHT22;54657;52.022;5.534;2023-08-06T10:09:00;16.20;99.90
65046;DHT22;54657;52.022;5.534;2023-08-06T10:11:26;16.10;99.90
65046;DHT22;54657;52.022;5.534;2023-08-06T10:14:00;16.10;99.90
65046;DHT22;54657;52.022;5.534;2023-08-06T10:16:29;16.10;99.90
65046;DHT22;54657;52.022;5.534;2023-08-06T10:18:55;16.10;99.90
65046;DHT22;54657;52.022;5.534;2023-08-06T10:21:23;16.10;99.90
65046;DHT22;54657;52.022;5.534;2023-08-06T10:23:54;16.10;99.90
65046;DHT22;54657;52.022;5.534;2023-08-06T10:26:20;16.20;99.90
65046;DHT22;54657;52.022;5.534;2023-08-06T10:28:45;16.20;99.90
65046;DHT22;54657;52.022;5.534;2023-08-06T10:31:11;16.20;99.90
65046;DHT22;54657;52.022;5.534;2023-08-06T10:33:45;16.20;99.90
65046;DHT22;54657;52.022;5.534;2023-08-06T10:36:11;16.20;99.90
65046;DHT22;54657;52.022;5.534;2023-08-06T10:38:47;16.20;99.90
65046;DHT22;54657;52.022;5.534;2023-08-06T10:41:27;16.20;99.90
65046;DHT22;54657;52.022;5.534;2023-08-06T10:44:08;16.30;99.90
65046;DHT22;54657;52.022;5.534;2023-08-06T10:46:34;16.30;99.90
65046;DHT22;54657;52.022;5.534;2023-08-06T10:49:01;16.30;99.90
65046;DHT22;54657;52.022;5.534;2023-08-06T10:51:27;16.30;99.90
65046;DHT22;54657;52.022;5.534;2023-08-06T10:53:53;16.30;99.90
65046;DHT22;54657;52.022;5.534;2023-08-06T10:56:23;16.30;99.90
65046;DHT22;54657;52.022;5.534;2023-08-06T10:58:50;16.30;99.90
65046;DHT22;54657;52.022;5.534;2023-08-06T11:01:15;16.30;99.90
65046;DHT22;54657;52.022;5.534;2023-08-06T11:03:45;16.40;99.90
65046;DHT22;54657;52.022;5.534;2023-08-06T11:06:20;16.40;99.90
65046;DHT22;54657;52.022;5.534;2023-08-06T11:08:54;16.30;99.90
65046;DHT22;54657;52.022;5.534;2023-08-06T11:11:21;16.30;99.90
65046;DHT22;54657;52.022;5.534;2023-08-06T11:13:49;16.30;99.90
65046;DHT22;54657;52.022;5.534;2023-08-06T11:16:19;16.30;99.90
65046;DHT22;54657;52.022;5.534;2023-08-06T11:18:45;16.30;99.90
65046;DHT22;54657;52.022;5.534;2023-08-06T11:21:11;16.30;99.90
65046;DHT22;54657;52.022;5.534;2023-08-06T11:23:40;16.30;99.90
65046;DHT22;54657;52.022;5.534;2023-08-06T11:26:07;16.20;99.90
65046;DHT22;54657;52.022;5.534;2023-08-06T11:28:33;16.30;99.90
65046;DHT22;54657;52.022;5.534;2023-08-06T11:30:59;16.20;99.90
65046;DHT22;54657;52.022;5.534;2023-08-06T11:33:27;16.20;99.90
65046;DHT22;54657;52.022;5.534;2023-08-06T11:35:57;16.20;99.90
65046;DHT22;54657;52.022;5.534;2023-08-06T11:38:30;16.20;99.90
65046;DHT22;54657;52.022;5.534;2023-08-06T11:40:56;16.10;99.90
65046;DHT22;54657;52.022;5.534;2023-08-06T11:43:22;16.10;99.90
65046;DHT22;54657;52.022;5.534;2023-08-06T11:45:51;16.10;99.90
65046;DHT22;54657;52.022;5.534;2023-08-06T11:48:19;16.10;99.90
65046;DHT22;54657;52.022;5.534;2023-08-06T11:50:45;16.00;99.90
65046;DHT22;54657;52.022;5.534;2023-08-06T11:53:13;16.00;99.90
65046;DHT22;54657;52.022;5.534;2023-08-06T11:55:39;16.10;99.90
65046;DHT22;54657;52.022;5.534;2023-08-06T11:58:05;16.20;99.90
65046;DHT22;54657;52.022;5.534;2023-08-06T12:00:31;16.20;99.90
65046;DHT22;54657;52.022;5.534;2023-08-06T12:02:57;16.10;99.90
65046;DHT22;54657;52.022;5.534;2023-08-06T12:05:28;16.10;99.90
65046;DHT22;54657;52.022;5.534;2023-08-06T12:07:59;16.10;99.90
65046;DHT22;54657;52.022;5.534;2023-08-06T12:10:27;16.10;99.90
65046;DHT22;54657;52.022;5.534;2023-08-06T12:12:53;16.20;99.90
65046;DHT22;54657;52.022;5.534;2023-08-06T12:15:19;16.20;99.90
65046;DHT22;54657;52.022;5.534;2023-08-06T12:17:45;16.10;99.90
65046;DHT22;54657;52.022;5.534;2023-08-06T12:20:11;16.10;99.90
65046;DHT22;54657;52.022;5.534;2023-08-06T12:22:37;16.10;99.90
65046;DHT22;54657;52.022;5.534;2023-08-06T12:25:07;16.10;99.70
65046;DHT22;54657;52.022;5.534;2023-08-06T12:27:37;16.10;99.80
65046;DHT22;54657;52.022;5.534;2023-08-06T12:30:03;16.10;99.80
65046;DHT22;54657;52.022;5.534;2023-08-06T12:32:29;16.10;99.80
65046;DHT22;54657;52.022;5.534;2023-08-06T12:34:55;16.20;99.80
65046;DHT22;54657;52.022;5.534;2023-08-06T12:37:20;16.30;99.80
65046;DHT22;54657;52.022;5.534;2023-08-06T12:39:46;16.30;99.70
65046;DHT22;54657;52.022;5.534;2023-08-06T12:42:12;16.30;99.70
65046;DHT22;54657;52.022;5.534;2023-08-06T12:44:38;16.30;99.70
65046;DHT22;54657;52.022;5.534;2023-08-06T12:47:03;16.30;99.80
65046;DHT22;54657;52.022;5.534;2023-08-06T12:49:29;16.30;99.70
65046;DHT22;54657;52.022;5.534;2023-08-06T12:51:57;16.30;99.80
65046;DHT22;54657;52.022;5.534;2023-08-06T12:54:23;16.40;99.80
65046;DHT22;54657;52.022;5.534;2023-08-06T12:56:49;16.40;99.80
65046;DHT22;54657;52.022;5.534;2023-08-06T12:59:16;16.40;99.70
65046;DHT22;54657;52.022;5.534;2023-08-06T13:01:43;16.40;99.70
65046;DHT22;54657;52.022;5.534;2023-08-06T13:04:09;16.40;99.80
65046;DHT22;54657;52.022;5.534;2023-08-06T13:06:35;16.40;99.90
65046;DHT22;54657;52.022;5.534;2023-08-06T13:09:03;16.50;99.80
65046;DHT22;54657;52.022;5.534;2023-08-06T13:11:32;16.50;99.80
65046;DHT22;54657;52.022;5.534;2023-08-06T13:14:05;16.50;99.90
65046;DHT22;54657;52.022;5.534;2023-08-06T13:16:32;16.50;99.90
65046;DHT22;54657;52.022;5.534;2023-08-06T13:18:57;16.50;99.90
65046;DHT22;54657;52.022;5.534;2023-08-06T13:21:23;16.50;99.90
65046;DHT22;54657;52.022;5.534;2023-08-06T13:23:49;16.60;99.90
65046;DHT22;54657;52.022;5.534;2023-08-06T13:26:14;16.60;99.90
65046;DHT22;54657;52.022;5.534;2023-08-06T13:28:43;16.70;99.90
65046;DHT22;54657;52.022;5.534;2023-08-06T13:31:09;16.70;99.90
65046;DHT22;54657;52.022;5.534;2023-08-06T13:33:35;16.70;99.90
65046;DHT22;54657;52.022;5.534;2023-08-06T13:36:00;16.70;99.90
65046;DHT22;54657;52.022;5.534;2023-08-06T13:38:26;16.70;99.90
65046;DHT22;54657;52.022;5.534;2023-08-06T13:40:51;16.80;99.90
65046;DHT22;54657;52.022;5.534;2023-08-06T13:43:17;16.80;99.90
65046;DHT22;54657;52.022;5.534;2023-08-06T13:45:44;16.90;99.90
65046;DHT22;54657;52.022;5.534;2023-08-06T13:48:10;17.00;99.90
65046;DHT22;54657;52.022;5.534;2023-08-06T13:50:36;17.00;99.90
65046;DHT22;54657;52.022;5.534;2023-08-06T13:53:02;17.00;99.90
65046;DHT22;54657;52.022;5.534;2023-08-06T13:55:28;17.00;99.90
65046;DHT22;54657;52.022;5.534;2023-08-06T13:57:54;17.10;99.90
65046;DHT22;54657;52.022;5.534;2023-08-06T14:00:19;17.10;99.90
65046;DHT22;54657;52.022;5.534;2023-08-06T14:02:45;17.10;99.90
65046;DHT22;54657;52.022;5.534;2023-08-06T14:05:11;17.10;99.90
65046;DHT22;54657;52.022;5.534;2023-08-06T14:07:36;17.20;99.90
65046;DHT22;54657;52.022;5.534;2023-08-06T14:10:02;17.20;99.90
65046;DHT22;54657;52.022;5.534;2023-08-06T14:12:28;17.30;99.90
65046;DHT22;54657;52.022;5.534;2023-08-06T14:14:53;17.30;99.90
65046;DHT22;54657;52.022;5.534;2023-08-06T14:17:19;17.30;99.90
65046;DHT22;54657;52.022;5.534;2023-08-06T14:19:44;17.30;99.90
65046;DHT22;54657;52.022;5.534;2023-08-06T14:22:10;17.20;99.90
65046;DHT22;54657;52.022;5.534;2023-08-06T14:24:36;17.20;99.90
65046;DHT22;54657;52.022;5.534;2023-08-06T14:27:01;17.20;99.90
65046;DHT22;54657;52.022;5.534;2023-08-06T14:29:29;17.30;99.90
65046;DHT22;54657;52.022;5.534;2023-08-06T14:31:55;17.30;99.90
65046;DHT22;54657;52.022;5.534;2023-08-06T14:34:21;17.30;99.90
65046;DHT22;54657;52.022;5.534;2023-08-06T14:36:46;17.30;99.90
65046;DHT22;54657;52.022;5.534;2023-08-06T14:39:12;17.30;99.90
65046;DHT22;54657;52.022;5.534;2023-08-06T14:41:37;17.30;99.90
65046;DHT22;54657;52.022;5.534;2023-08-06T14:44:03;17.30;99.90
65046;DHT22;54657;52.022;5.534;2023-08-06T14:46:29;17.30;99.90
65046;DHT22;54657;52.022;5.534;2023-08-06T14:48:54;17.30;99.90
65046;DHT22;54657;52.022;5.534;2023-08-06T14:51:20;17.40;99.90
65046;DHT22;54657;52.022;5.534;2023-08-06T14:53:46;17.40;99.90
65046;DHT22;54657;52.022;5.534;2023-08-06T14:56:11;17.40;99.90
65046;DHT22;54657;52.022;5.534;2023-08-06T14:58:37;17.40;99.90
65046;DHT22;54657;52.022;5.534;2023-08-06T15:01:02;17.30;99.90
65046;DHT22;54657;52.022;5.534;2023-08-06T15:03:28;17.30;99.90
65046;DHT22;54657;52.022;5.534;2023-08-06T15:05:54;17.30;99.90
65046;DHT22;54657;52.022;5.534;2023-08-06T15:08:19;17.40;99.90
65046;DHT22;54657;52.022;5.534;2023-08-06T15:10:54;17.50;99.90
65046;DHT22;54657;52.022;5.534;2023-08-06T15:13:20;17.50;99.90
65046;DHT22;54657;52.022;5.534;2023-08-06T15:15:49;17.50;99.90
65046;DHT22;54657;52.022;5.534;2023-08-06T15:18:15;17.60;99.90
65046;DHT22;54657;52.022;5.534;2023-08-06T15:20:40;17.60;99.90
65046;DHT22;54657;52.022;5.534;2023-08-06T15:23:06;17.60;99.90
65046;DHT22;54657;52.022;5.534;2023-08-06T15:25:32;17.60;99.90
65046;DHT22;54657;52.022;5.534;2023-08-06T15:27:57;17.60;99.90